アルハンゲリスク の空港の天気 - METARとTAF

Arhangel'Sk ( ULAA / ARH ) - ロシア アルハンゲリスク
飛行場実況気象(Metar)
観測時間08/05 00:30 MSK (08/04 21:30 UTC)
風向・風速南 3m/s
視程10km以上
天気現象
全天の4割程度の雲 雲底高度 910m
気温16℃
湿度94%
気圧1013hPa
METARULAA 042130Z 18003MPS 150V210 9999 SCT030 16/15 Q1013 R08/CLRD68 NOSIG RMK QFE759/1012
過去の天気等 Google飛行場航空写真 Wunderground天気予報

過去48時間のMETAR

飛行場予報(TAF)
発表時間: 8/04 23:00 MSK (8/04 20:00 UTC)
予報対象時間: 5日0時 MSK ~ 6日0時 MSK
風向・風速南 3m/s
視程10km以上
全天の8割程度の雲 雲底高度 520m
5日0時 MSK ~ 5日12時 MSK に一時的に
風向・風速南南東 3m/s 瞬間風速 10m/s
視程6000m
天気現象弱いしゅう雨
全天の8割程度の積乱雲 雲底高度 490m
5日12時 MSK ~ 5日18時 MSK に一時的に
風向・風速南 4m/s 瞬間風速 13m/s
視程3000m
天気現象弱い雷雨
全天の8割程度の積乱雲 雲底高度 340m
5日18時 MSK ~ 5日24時 MSK に一時的に
風向・風速南西 3m/s 瞬間風速 10m/s
視程6000m
天気現象弱いしゅう雨
全天の8割程度の積乱雲 雲底高度 490m
TAF ULAA 042000Z 0421/0521 19003MPS 9999 BKN017
TEMPO 0421/0509 15003G10MPS 6000 -SHRA BKN016CB
TEMPO 0509/0515 17004G13MPS 3000 -TSRA BKN011CB
TEMPO 0515/0521 22003G10MPS 6000 -SHRA BKN016CB